sensor_id;sensor_type;location;lat;lon;timestamp;pressure;altitude;pressure_sealevel;temperature;humidity
46015;BME280;36844;51.898;-0.874;2022-08-25T00:00:55;100627.28;;;23.77;
46015;BME280;36844;51.898;-0.874;2022-08-25T00:03:41;100621.84;;;23.77;
46015;BME280;36844;51.898;-0.874;2022-08-25T00:06:27;100614.84;;;23.76;
46015;BME280;36844;51.898;-0.874;2022-08-25T00:09:13;100620.28;;;23.76;
46015;BME280;36844;51.898;-0.874;2022-08-25T00:11:59;100614.06;;;23.75;
46015;BME280;36844;51.898;-0.874;2022-08-25T00:14:45;100601.66;;;23.74;
46015;BME280;36844;51.898;-0.874;2022-08-25T00:17:31;100602.84;;;23.73;
46015;BME280;36844;51.898;-0.874;2022-08-25T00:20:17;100602.84;;;23.73;
46015;BME280;36844;51.898;-0.874;2022-08-25T00:23:02;100591.22;;;23.73;
46015;BME280;36844;51.898;-0.874;2022-08-25T00:25:48;100585.03;;;23.72;
46015;BME280;36844;51.898;-0.874;2022-08-25T00:28:35;100585.03;;;23.72;
46015;BME280;36844;51.898;-0.874;2022-08-25T00:31:21;100596.34;;;23.71;
46015;BME280;36844;51.898;-0.874;2022-08-25T00:34:11;100598.28;;;23.70;
46015;BME280;36844;51.898;-0.874;2022-08-25T00:36:57;100605.69;;;23.70;
46015;BME280;36844;51.898;-0.874;2022-08-25T00:39:43;100595.56;;;23.70;
46015;BME280;36844;51.898;-0.874;2022-08-25T00:42:28;100599.50;;;23.69;
46015;BME280;36844;51.898;-0.874;2022-08-25T00:45:14;100601.44;;;23.69;
46015;BME280;36844;51.898;-0.874;2022-08-25T00:48:00;100604.59;;;23.67;
46015;BME280;36844;51.898;-0.874;2022-08-25T00:50:46;100602.66;;;23.68;
46015;BME280;36844;51.898;-0.874;2022-08-25T00:53:31;100606.56;;;23.67;
46015;BME280;36844;51.898;-0.874;2022-08-25T00:56:17;100603.06;;;23.66;
46015;BME280;36844;51.898;-0.874;2022-08-25T00:59:03;100603.06;;;23.66;
46015;BME280;36844;51.898;-0.874;2022-08-25T01:01:49;100615.88;;;23.66;
46015;BME280;36844;51.898;-0.874;2022-08-25T01:04:35;100610.91;;;23.64;
46015;BME280;36844;51.898;-0.874;2022-08-25T01:07:21;100607.41;;;23.64;
46015;BME280;36844;51.898;-0.874;2022-08-25T01:10:08;100615.59;;;23.64;
46015;BME280;36844;51.898;-0.874;2022-08-25T01:12:55;100622.19;;;23.63;
46015;BME280;36844;51.898;-0.874;2022-08-25T01:15:43;100621.47;;;23.62;
46015;BME280;36844;51.898;-0.874;2022-08-25T01:18:31;100610.56;;;23.62;
46015;BME280;36844;51.898;-0.874;2022-08-25T01:21:27;100610.56;;;23.62;
46015;BME280;36844;51.898;-0.874;2022-08-25T01:27:08;100615.69;;;23.60;
46015;BME280;36844;51.898;-0.874;2022-08-25T01:29:54;100613.72;;;23.61;
46015;BME280;36844;51.898;-0.874;2022-08-25T01:32:42;100611.44;;;23.59;
46015;BME280;36844;51.898;-0.874;2022-08-25T01:35:27;100616.88;;;23.59;
46015;BME280;36844;51.898;-0.874;2022-08-25T01:38:13;100611.44;;;23.59;
46015;BME280;36844;51.898;-0.874;2022-08-25T01:40:59;100609.91;;;23.58;
46015;BME280;36844;51.898;-0.874;2022-08-25T01:43:45;100607.19;;;23.58;
46015;BME280;36844;51.898;-0.874;2022-08-25T01:46:30;100608.41;;;23.57;
46015;BME280;36844;51.898;-0.874;2022-08-25T01:49:16;100597.50;;;23.57;
46015;BME280;36844;51.898;-0.874;2022-08-25T01:52:06;100611.13;;;23.57;
46015;BME280;36844;51.898;-0.874;2022-08-25T01:54:56;100596.41;;;23.55;
46015;BME280;36844;51.898;-0.874;2022-08-25T01:57:42;100597.19;;;23.55;
46015;BME280;36844;51.898;-0.874;2022-08-25T02:00:27;100599.13;;;23.55;
46015;BME280;36844;51.898;-0.874;2022-08-25T02:03:13;100599.13;;;23.55;
46015;BME280;36844;51.898;-0.874;2022-08-25T02:05:59;100595.63;;;23.54;
46015;BME280;36844;51.898;-0.874;2022-08-25T02:08:49;100594.94;;;23.54;
46015;BME280;36844;51.898;-0.874;2022-08-25T02:11:36;100598.81;;;23.53;
46015;BME280;36844;51.898;-0.874;2022-08-25T02:14:21;100590.66;;;23.53;
46015;BME280;36844;51.898;-0.874;2022-08-25T02:17:07;100585.63;;;23.51;
46015;BME280;36844;51.898;-0.874;2022-08-25T02:19:54;100585.63;;;23.51;
46015;BME280;36844;51.898;-0.874;2022-08-25T02:22:41;100590.31;;;23.51;
46015;BME280;36844;51.898;-0.874;2022-08-25T02:25:26;100593.78;;;23.51;
46015;BME280;36844;51.898;-0.874;2022-08-25T02:28:12;100603.16;;;23.50;
46015;BME280;36844;51.898;-0.874;2022-08-25T02:30:58;100601.63;;;23.49;
46015;BME280;36844;51.898;-0.874;2022-08-25T02:33:43;100600.09;;;23.48;
46015;BME280;36844;51.898;-0.874;2022-08-25T02:36:29;100589.22;;;23.48;
46015;BME280;36844;51.898;-0.874;2022-08-25T02:39:16;100600.09;;;23.48;
46015;BME280;36844;51.898;-0.874;2022-08-25T02:42:02;100612.50;;;23.49;
46015;BME280;36844;51.898;-0.874;2022-08-25T02:44:47;100612.50;;;23.49;
46015;BME280;36844;51.898;-0.874;2022-08-25T02:47:33;100604.03;;;23.47;
46015;BME280;36844;51.898;-0.874;2022-08-25T02:50:21;100594.34;;;23.46;
46015;BME280;36844;51.898;-0.874;2022-08-25T02:53:06;100599.78;;;23.46;
46015;BME280;36844;51.898;-0.874;2022-08-25T02:55:52;100590.84;;;23.46;
46015;BME280;36844;51.898;-0.874;2022-08-25T02:58:38;100595.53;;;23.45;
46015;BME280;36844;51.898;-0.874;2022-08-25T03:01:24;100606.41;;;23.45;
46015;BME280;36844;51.898;-0.874;2022-08-25T03:04:10;100598.69;;;23.44;
46015;BME280;36844;51.898;-0.874;2022-08-25T03:06:55;100587.81;;;23.44;
46015;BME280;36844;51.898;-0.874;2022-08-25T03:09:41;100581.59;;;23.43;
46015;BME280;36844;51.898;-0.874;2022-08-25T03:12:26;100573.44;;;23.43;
46015;BME280;36844;51.898;-0.874;2022-08-25T03:15:14;100572.66;;;23.43;
46015;BME280;36844;51.898;-0.874;2022-08-25T03:18:03;100568.47;;;23.42;
46015;BME280;36844;51.898;-0.874;2022-08-25T03:20:49;100568.47;;;23.42;
46015;BME280;36844;51.898;-0.874;2022-08-25T03:23:35;100562.25;;;23.41;
46015;BME280;36844;51.898;-0.874;2022-08-25T03:26:21;100563.03;;;23.42;
46015;BME280;36844;51.898;-0.874;2022-08-25T03:29:26;100555.28;;;23.40;
46015;BME280;36844;51.898;-0.874;2022-08-25T03:32:12;100546.34;;;23.40;
46015;BME280;36844;51.898;-0.874;2022-08-25T03:34:58;100543.63;;;23.40;
46015;BME280;36844;51.898;-0.874;2022-08-25T03:37:45;100543.63;;;23.40;
46015;BME280;36844;51.898;-0.874;2022-08-25T03:40:31;100540.91;;;23.40;
46015;BME280;36844;51.898;-0.874;2022-08-25T03:43:17;100531.28;;;23.39;
46015;BME280;36844;51.898;-0.874;2022-08-25T03:46:04;100525.84;;;23.39;
46015;BME280;36844;51.898;-0.874;2022-08-25T03:48:50;100511.47;;;23.38;
46015;BME280;36844;51.898;-0.874;2022-08-25T03:51:43;100500.59;;;23.38;
46015;BME280;36844;51.898;-0.874;2022-08-25T03:54:31;100504.50;;;23.37;
46015;BME280;36844;51.898;-0.874;2022-08-25T03:57:16;100515.38;;;23.37;
46015;BME280;36844;51.898;-0.874;2022-08-25T04:00:06;100501.00;;;23.37;
46015;BME280;36844;51.898;-0.874;2022-08-25T04:02:52;100489.38;;;23.36;
46015;BME280;36844;51.898;-0.874;2022-08-25T04:05:38;100489.38;;;23.36;
46015;BME280;36844;51.898;-0.874;2022-08-25T04:08:24;100487.84;;;23.35;
46015;BME280;36844;51.898;-0.874;2022-08-25T04:11:16;100498.72;;;23.35;
46015;BME280;36844;51.898;-0.874;2022-08-25T04:14:03;100501.44;;;23.35;
46015;BME280;36844;51.898;-0.874;2022-08-25T04:16:49;100510.81;;;23.34;
46015;BME280;36844;51.898;-0.874;2022-08-25T04:19:34;100519.72;;;23.35;
46015;BME280;36844;51.898;-0.874;2022-08-25T04:22:20;100518.19;;;23.33;
46015;BME280;36844;51.898;-0.874;2022-08-25T04:25:06;100524.38;;;23.34;
46015;BME280;36844;51.898;-0.874;2022-08-25T04:27:52;100528.31;;;23.33;
46015;BME280;36844;51.898;-0.874;2022-08-25T04:30:40;100528.31;;;23.33;
46015;BME280;36844;51.898;-0.874;2022-08-25T04:33:26;100541.91;;;23.33;
46015;BME280;36844;51.898;-0.874;2022-08-25T04:36:11;100559.41;;;23.32;
46015;BME280;36844;51.898;-0.874;2022-08-25T04:38:57;100551.25;;;23.32;
46015;BME280;36844;51.898;-0.874;2022-08-25T04:41:43;100545.81;;;23.32;
46015;BME280;36844;51.898;-0.874;2022-08-25T04:44:29;100545.81;;;23.32;
46015;BME280;36844;51.898;-0.874;2022-08-25T04:47:15;100542.78;;;23.30;
46015;BME280;36844;51.898;-0.874;2022-08-25T04:50:00;100545.50;;;23.30;
46015;BME280;36844;51.898;-0.874;2022-08-25T04:52:46;100548.97;;;23.30;
46015;BME280;36844;51.898;-0.874;2022-08-25T04:55:31;100545.50;;;23.30;
46015;BME280;36844;51.898;-0.874;2022-08-25T04:58:17;100540.06;;;23.30;
46015;BME280;36844;51.898;-0.874;2022-08-25T05:01:03;100542.78;;;23.30;
46015;BME280;36844;51.898;-0.874;2022-08-25T05:03:51;100539.28;;;23.29;
46015;BME280;36844;51.898;-0.874;2022-08-25T05:06:37;100546.69;;;23.29;
46015;BME280;36844;51.898;-0.874;2022-08-25T05:09:23;100548.63;;;23.28;
46015;BME280;36844;51.898;-0.874;2022-08-25T05:12:09;100547.06;;;23.27;
46015;BME280;36844;51.898;-0.874;2022-08-25T05:14:55;100547.84;;;23.28;
46015;BME280;36844;51.898;-0.874;2022-08-25T05:17:40;100549.09;;;23.27;
46015;BME280;36844;51.898;-0.874;2022-08-25T05:20:26;100559.97;;;23.27;
46015;BME280;36844;51.898;-0.874;2022-08-25T05:23:11;100562.69;;;23.27;
46015;BME280;36844;51.898;-0.874;2022-08-25T05:26:00;100564.63;;;23.26;
46015;BME280;36844;51.898;-0.874;2022-08-25T05:28:48;100561.91;;;23.26;
46015;BME280;36844;51.898;-0.874;2022-08-25T05:31:34;100571.66;;;23.24;
46015;BME280;36844;51.898;-0.874;2022-08-25T05:34:21;100569.28;;;23.26;
46015;BME280;36844;51.898;-0.874;2022-08-25T05:37:06;100568.50;;;23.25;
46015;BME280;36844;51.898;-0.874;2022-08-25T05:39:52;100564.25;;;23.24;
46015;BME280;36844;51.898;-0.874;2022-08-25T05:42:38;100568.94;;;23.24;
46015;BME280;36844;51.898;-0.874;2022-08-25T05:45:24;100568.94;;;23.24;
46015;BME280;36844;51.898;-0.874;2022-08-25T05:48:10;100580.25;;;23.22;
46015;BME280;36844;51.898;-0.874;2022-08-25T05:50:56;100589.19;;;23.23;
46015;BME280;36844;51.898;-0.874;2022-08-25T05:53:43;100589.19;;;23.23;
46015;BME280;36844;51.898;-0.874;2022-08-25T05:56:29;100603.94;;;23.22;
46015;BME280;36844;51.898;-0.874;2022-08-25T05:59:15;100603.94;;;23.22;
46015;BME280;36844;51.898;-0.874;2022-08-25T06:02:01;100605.16;;;23.21;
46015;BME280;36844;51.898;-0.874;2022-08-25T06:05:06;100607.88;;;23.21;
46015;BME280;36844;51.898;-0.874;2022-08-25T06:07:51;100607.88;;;23.21;
46015;BME280;36844;51.898;-0.874;2022-08-25T06:10:37;100606.34;;;23.20;
46015;BME280;36844;51.898;-0.874;2022-08-25T06:13:23;100605.16;;;23.21;
46015;BME280;36844;51.898;-0.874;2022-08-25T06:16:08;100607.09;;;23.20;
46015;BME280;36844;51.898;-0.874;2022-08-25T06:18:54;100600.88;;;23.20;
46015;BME280;36844;51.898;-0.874;2022-08-25T06:21:40;100611.00;;;23.19;
46015;BME280;36844;51.898;-0.874;2022-08-25T06:24:26;100612.97;;;23.19;
46015;BME280;36844;51.898;-0.874;2022-08-25T06:27:12;100611.44;;;23.18;
46015;BME280;36844;51.898;-0.874;2022-08-25T06:29:57;100613.41;;;23.17;
46015;BME280;36844;51.898;-0.874;2022-08-25T06:32:43;100622.72;;;23.16;
46015;BME280;36844;51.898;-0.874;2022-08-25T06:35:29;100614.56;;;23.16;
46015;BME280;36844;51.898;-0.874;2022-08-25T06:38:14;100614.56;;;23.16;
46015;BME280;36844;51.898;-0.874;2022-08-25T06:41:01;100616.22;;;23.14;
46015;BME280;36844;51.898;-0.874;2022-08-25T06:43:46;100629.03;;;23.13;
46015;BME280;36844;51.898;-0.874;2022-08-25T06:46:32;100616.63;;;23.12;
46015;BME280;36844;51.898;-0.874;2022-08-25T06:49:18;100620.56;;;23.11;
46015;BME280;36844;51.898;-0.874;2022-08-25T06:52:03;100619.78;;;23.11;
46015;BME280;36844;51.898;-0.874;2022-08-25T06:54:49;100627.19;;;23.10;
46015;BME280;36844;51.898;-0.874;2022-08-25T06:57:35;100629.91;;;23.10;
46015;BME280;36844;51.898;-0.874;2022-08-25T07:00:20;100629.91;;;23.10;
46015;BME280;36844;51.898;-0.874;2022-08-25T07:03:06;100625.66;;;23.09;
46015;BME280;36844;51.898;-0.874;2022-08-25T07:05:52;100618.69;;;23.08;
46015;BME280;36844;51.898;-0.874;2022-08-25T07:08:38;100615.19;;;23.08;
46015;BME280;36844;51.898;-0.874;2022-08-25T07:11:23;100613.69;;;23.07;
46015;BME280;36844;51.898;-0.874;2022-08-25T07:14:10;100619.88;;;23.07;
46015;BME280;36844;51.898;-0.874;2022-08-25T07:16:56;100614.09;;;23.05;
46015;BME280;36844;51.898;-0.874;2022-08-25T07:19:42;100611.41;;;23.05;
46015;BME280;36844;51.898;-0.874;2022-08-25T07:22:27;100618.00;;;23.04;
46015;BME280;36844;51.898;-0.874;2022-08-25T07:25:13;100621.50;;;23.05;
46015;BME280;36844;51.898;-0.874;2022-08-25T07:27:58;100618.47;;;23.03;
46015;BME280;36844;51.898;-0.874;2022-08-25T07:30:44;100614.97;;;23.02;
46015;BME280;36844;51.898;-0.874;2022-08-25T07:33:30;100609.94;;;23.01;
46015;BME280;36844;51.898;-0.874;2022-08-25T07:36:16;100614.19;;;23.02;
46015;BME280;36844;51.898;-0.874;2022-08-25T07:39:02;100619.31;;;23.00;
46015;BME280;36844;51.898;-0.874;2022-08-25T07:41:50;100615.06;;;22.99;
46015;BME280;36844;51.898;-0.874;2022-08-25T07:44:35;100617.00;;;22.98;
46015;BME280;36844;51.898;-0.874;2022-08-25T07:47:21;100625.16;;;22.98;
46015;BME280;36844;51.898;-0.874;2022-08-25T07:50:07;100620.94;;;22.97;
46015;BME280;36844;51.898;-0.874;2022-08-25T07:52:54;100631.78;;;22.97;
46015;BME280;36844;51.898;-0.874;2022-08-25T07:55:39;100632.22;;;22.96;
46015;BME280;36844;51.898;-0.874;2022-08-25T07:58:26;100632.22;;;22.96;
46015;BME280;36844;51.898;-0.874;2022-08-25T08:01:15;100629.16;;;22.94;
46015;BME280;36844;51.898;-0.874;2022-08-25T08:04:01;100631.88;;;22.94;
46015;BME280;36844;51.898;-0.874;2022-08-25T08:06:47;100625.69;;;22.93;
46015;BME280;36844;51.898;-0.874;2022-08-25T08:09:33;100624.91;;;22.93;
46015;BME280;36844;51.898;-0.874;2022-08-25T08:12:18;100630.34;;;22.93;
46015;BME280;36844;51.898;-0.874;2022-08-25T08:15:04;100626.88;;;22.92;
46015;BME280;36844;51.898;-0.874;2022-08-25T08:17:50;100630.81;;;22.91;
46015;BME280;36844;51.898;-0.874;2022-08-25T08:20:37;100627.31;;;22.91;
46015;BME280;36844;51.898;-0.874;2022-08-25T08:23:22;100621.09;;;22.90;
46015;BME280;36844;51.898;-0.874;2022-08-25T08:26:12;100612.19;;;22.90;
46015;BME280;36844;51.898;-0.874;2022-08-25T08:28:57;100610.25;;;22.90;
46015;BME280;36844;51.898;-0.874;2022-08-25T08:31:43;100605.97;;;22.89;
46015;BME280;36844;51.898;-0.874;2022-08-25T08:34:29;100607.91;;;22.89;
46015;BME280;36844;51.898;-0.874;2022-08-25T08:37:15;100598.28;;;22.88;
46015;BME280;36844;51.898;-0.874;2022-08-25T08:40:01;100590.91;;;22.88;
46015;BME280;36844;51.898;-0.874;2022-08-25T08:43:02;100601.78;;;22.88;
46015;BME280;36844;51.898;-0.874;2022-08-25T08:45:50;100605.66;;;22.87;
46015;BME280;36844;51.898;-0.874;2022-08-25T08:51:28;100607.63;;;22.87;
46015;BME280;36844;51.898;-0.874;2022-08-25T08:54:17;100615.00;;;22.86;
46015;BME280;36844;51.898;-0.874;2022-08-25T08:57:07;100614.22;;;22.86;
46015;BME280;36844;51.898;-0.874;2022-08-25T08:59:56;100625.09;;;22.86;
46015;BME280;36844;51.898;-0.874;2022-08-25T09:02:50;100616.94;;;22.86;
46015;BME280;36844;51.898;-0.874;2022-08-25T09:05:42;100620.88;;;22.85;
46015;BME280;36844;51.898;-0.874;2022-08-25T09:08:28;100623.59;;;22.85;
46015;BME280;36844;51.898;-0.874;2022-08-25T09:17:12;100619.34;;;22.84;
46015;BME280;36844;51.898;-0.874;2022-08-25T09:22:53;100616.63;;;22.84;
46015;BME280;36844;51.898;-0.874;2022-08-25T09:26:28;100622.06;;;22.84;
46015;BME280;36844;51.898;-0.874;2022-08-25T09:28:51;100626.31;;;22.85;
46015;BME280;36844;51.898;-0.874;2022-08-25T09:31:40;100617.38;;;22.84;
46015;BME280;36844;51.898;-0.874;2022-08-25T09:34:30;100629.78;;;22.85;
46015;BME280;36844;51.898;-0.874;2022-08-25T09:37:17;100637.94;;;22.85;
46015;BME280;36844;51.898;-0.874;2022-08-25T09:40:02;100637.94;;;22.85;
46015;BME280;36844;51.898;-0.874;2022-08-25T09:42:49;100630.97;;;22.84;
46015;BME280;36844;51.898;-0.874;2022-08-25T09:45:38;100630.50;;;22.86;
46015;BME280;36844;51.898;-0.874;2022-08-25T09:48:31;100627.06;;;22.85;
46015;BME280;36844;51.898;-0.874;2022-08-25T09:51:26;100635.22;;;22.85;
46015;BME280;36844;51.898;-0.874;2022-08-25T09:56:59;100616.63;;;22.84;
46015;BME280;36844;51.898;-0.874;2022-08-25T09:59:46;100612.72;;;22.85;
46015;BME280;36844;51.898;-0.874;2022-08-25T10:02:35;100595.66;;;22.84;
46015;BME280;36844;51.898;-0.874;2022-08-25T10:05:22;100585.56;;;22.85;
46015;BME280;36844;51.898;-0.874;2022-08-25T10:08:21;100585.56;;;22.85;
46015;BME280;36844;51.898;-0.874;2022-08-25T10:11:11;100563.84;;;22.85;
46015;BME280;36844;51.898;-0.874;2022-08-25T10:14:19;100552.19;;;22.84;
46015;BME280;36844;51.898;-0.874;2022-08-25T10:23:07;100556.09;;;22.83;
46015;BME280;36844;51.898;-0.874;2022-08-25T10:25:53;100551.44;;;22.84;
46015;BME280;36844;51.898;-0.874;2022-08-25T10:28:46;100541.34;;;22.84;
46015;BME280;36844;51.898;-0.874;2022-08-25T10:32:17;100530.47;;;22.84;
46015;BME280;36844;51.898;-0.874;2022-08-25T10:37:53;100566.94;;;22.83;
46015;BME280;36844;51.898;-0.874;2022-08-25T10:40:43;100581.31;;;22.84;
46015;BME280;36844;51.898;-0.874;2022-08-25T10:43:32;100566.94;;;22.83;
46015;BME280;36844;51.898;-0.874;2022-08-25T10:46:25;100566.94;;;22.83;
46015;BME280;36844;51.898;-0.874;2022-08-25T10:49:13;100598.78;;;22.83;
46015;BME280;36844;51.898;-0.874;2022-08-25T10:52:04;100612.38;;;22.83;
46015;BME280;36844;51.898;-0.874;2022-08-25T10:55:04;100624.78;;;22.84;
46015;BME280;36844;51.898;-0.874;2022-08-25T10:58:05;100638.78;;;22.82;
46015;BME280;36844;51.898;-0.874;2022-08-25T11:03:58;100644.22;;;22.82;
46015;BME280;36844;51.898;-0.874;2022-08-25T11:06:49;100640.72;;;22.82;
46015;BME280;36844;51.898;-0.874;2022-08-25T11:09:42;100650.06;;;22.81;
46015;BME280;36844;51.898;-0.874;2022-08-25T11:12:30;100641.50;;;22.82;
46015;BME280;36844;51.898;-0.874;2022-08-25T11:15:18;100641.94;;;22.81;
46015;BME280;36844;51.898;-0.874;2022-08-25T11:18:09;100641.94;;;22.81;
46015;BME280;36844;51.898;-0.874;2022-08-25T11:20:59;100651.59;;;22.82;
46015;BME280;36844;51.898;-0.874;2022-08-25T11:23:51;100663.66;;;22.81;
46015;BME280;36844;51.898;-0.874;2022-08-25T11:26:38;100644.66;;;22.81;
46015;BME280;36844;51.898;-0.874;2022-08-25T11:29:27;100642.66;;;22.81;
46015;BME280;36844;51.898;-0.874;2022-08-25T11:32:17;100641.94;;;22.81;
46015;BME280;36844;51.898;-0.874;2022-08-25T11:35:09;100645.38;;;22.81;
46015;BME280;36844;51.898;-0.874;2022-08-25T11:38:05;100646.16;;;22.82;
46015;BME280;36844;51.898;-0.874;2022-08-25T11:43:45;100643.44;;;22.82;
46015;BME280;36844;51.898;-0.874;2022-08-25T11:46:48;100637.25;;;22.81;
46015;BME280;36844;51.898;-0.874;2022-08-25T11:50:22;100634.53;;;22.81;
46015;BME280;36844;51.898;-0.874;2022-08-25T11:52:55;100632.56;;;22.82;
46015;BME280;36844;51.898;-0.874;2022-08-25T12:04:37;100634.53;;;22.81;
46015;BME280;36844;51.898;-0.874;2022-08-25T12:10:28;100648.88;;;22.82;
46015;BME280;36844;51.898;-0.874;2022-08-25T12:13:46;100643.44;;;22.82;
46015;BME280;36844;51.898;-0.874;2022-08-25T12:16:43;100657.03;;;22.82;
46015;BME280;36844;51.898;-0.874;2022-08-25T12:25:29;100663.97;;;22.83;
46015;BME280;36844;51.898;-0.874;2022-08-25T12:28:23;100664.75;;;22.83;
46015;BME280;36844;51.898;-0.874;2022-08-25T12:31:58;100671.72;;;22.84;
46015;BME280;36844;51.898;-0.874;2022-08-25T12:37:18;100679.88;;;22.84;
46015;BME280;36844;51.898;-0.874;2022-08-25T12:40:04;100690.75;;;22.84;
46015;BME280;36844;51.898;-0.874;2022-08-25T12:42:59;100690.75;;;22.84;
46015;BME280;36844;51.898;-0.874;2022-08-25T12:45:45;100704.31;;;22.84;
46015;BME280;36844;51.898;-0.874;2022-08-25T12:51:18;100695.41;;;22.84;
46015;BME280;36844;51.898;-0.874;2022-08-25T12:57:00;100711.28;;;22.85;
46015;BME280;36844;51.898;-0.874;2022-08-25T12:59:48;100705.09;;;22.85;
46015;BME280;36844;51.898;-0.874;2022-08-25T13:11:17;100728.00;;;22.84;
46015;BME280;36844;51.898;-0.874;2022-08-25T13:14:06;100721.78;;;22.83;
46015;BME280;36844;51.898;-0.874;2022-08-25T13:16:57;100727.66;;;22.82;
46015;BME280;36844;51.898;-0.874;2022-08-25T13:19:43;100727.66;;;22.82;
46015;BME280;36844;51.898;-0.874;2022-08-25T13:22:29;100728.44;;;22.82;
46015;BME280;36844;51.898;-0.874;2022-08-25T13:25:18;100730.38;;;22.82;
46015;BME280;36844;51.898;-0.874;2022-08-25T13:28:05;100733.09;;;22.82;
46015;BME280;36844;51.898;-0.874;2022-08-25T13:31:02;100746.66;;;22.82;
46015;BME280;36844;51.898;-0.874;2022-08-25T13:33:52;100732.31;;;22.81;
46015;BME280;36844;51.898;-0.874;2022-08-25T13:36:42;100733.09;;;22.82;
46015;BME280;36844;51.898;-0.874;2022-08-25T13:39:46;100737.00;;;22.81;
46015;BME280;36844;51.898;-0.874;2022-08-25T13:42:32;100732.31;;;22.81;
46015;BME280;36844;51.898;-0.874;2022-08-25T13:45:19;100738.50;;;22.82;
46015;BME280;36844;51.898;-0.874;2022-08-25T13:48:05;100743.94;;;22.82;
46015;BME280;36844;51.898;-0.874;2022-08-25T13:50:51;100738.50;;;22.82;
46015;BME280;36844;51.898;-0.874;2022-08-25T13:53:53;100735.81;;;22.82;
46015;BME280;36844;51.898;-0.874;2022-08-25T13:56:40;100735.81;;;22.82;
46015;BME280;36844;51.898;-0.874;2022-08-25T13:59:34;100737.00;;;22.81;
46015;BME280;36844;51.898;-0.874;2022-08-25T14:05:42;100737.44;;;22.79;
46015;BME280;36844;51.898;-0.874;2022-08-25T14:08:33;100738.94;;;22.80;
46015;BME280;36844;51.898;-0.874;2022-08-25T14:11:29;100738.16;;;22.80;
46015;BME280;36844;51.898;-0.874;2022-08-25T14:17:08;100744.81;;;22.79;
46015;BME280;36844;51.898;-0.874;2022-08-25T14:19:54;100744.81;;;22.79;
46015;BME280;36844;51.898;-0.874;2022-08-25T14:22:40;100747.53;;;22.79;
46015;BME280;36844;51.898;-0.874;2022-08-25T14:25:26;100744.81;;;22.79;
46015;BME280;36844;51.898;-0.874;2022-08-25T14:28:13;100750.25;;;22.79;
46015;BME280;36844;51.898;-0.874;2022-08-25T14:31:04;100737.81;;;22.78;
46015;BME280;36844;51.898;-0.874;2022-08-25T14:33:53;100742.09;;;22.79;
46015;BME280;36844;51.898;-0.874;2022-08-25T14:36:40;100741.75;;;22.77;
46015;BME280;36844;51.898;-0.874;2022-08-25T14:39:27;100741.75;;;22.77;
46015;BME280;36844;51.898;-0.874;2022-08-25T14:42:13;100745.97;;;22.78;
46015;BME280;36844;51.898;-0.874;2022-08-25T14:45:01;100756.84;;;22.78;
46015;BME280;36844;51.898;-0.874;2022-08-25T14:47:46;100751.09;;;22.76;
46015;BME280;36844;51.898;-0.874;2022-08-25T14:50:32;100745.19;;;22.77;
46015;BME280;36844;51.898;-0.874;2022-08-25T14:53:17;100748.69;;;22.78;
46015;BME280;36844;51.898;-0.874;2022-08-25T14:56:03;100753.34;;;22.77;
46015;BME280;36844;51.898;-0.874;2022-08-25T14:58:49;100746.75;;;22.78;
46015;BME280;36844;51.898;-0.874;2022-08-25T15:01:34;100754.91;;;22.78;
46015;BME280;36844;51.898;-0.874;2022-08-25T15:04:21;100766.53;;;22.79;
46015;BME280;36844;51.898;-0.874;2022-08-25T15:07:07;100767.69;;;22.78;
46015;BME280;36844;51.898;-0.874;2022-08-25T15:10:12;100761.88;;;22.79;
46015;BME280;36844;51.898;-0.874;2022-08-25T15:12:58;100762.19;;;22.81;
46015;BME280;36844;51.898;-0.874;2022-08-25T15:15:44;100757.53;;;22.82;
46015;BME280;36844;51.898;-0.874;2022-08-25T15:18:29;100763.31;;;22.84;
46015;BME280;36844;51.898;-0.874;2022-08-25T15:21:15;100754.00;;;22.85;
46015;BME280;36844;51.898;-0.874;2022-08-25T15:24:01;100756.25;;;22.86;
46015;BME280;36844;51.898;-0.874;2022-08-25T15:26:48;100759.34;;;22.88;
46015;BME280;36844;51.898;-0.874;2022-08-25T15:29:35;100756.94;;;22.90;
46015;BME280;36844;51.898;-0.874;2022-08-25T15:32:20;100767.38;;;22.92;
46015;BME280;36844;51.898;-0.874;2022-08-25T15:35:06;100759.59;;;22.94;
46015;BME280;36844;51.898;-0.874;2022-08-25T15:37:54;100759.94;;;22.96;
46015;BME280;36844;51.898;-0.874;2022-08-25T15:40:39;100751.34;;;22.97;
46015;BME280;36844;51.898;-0.874;2022-08-25T15:43:25;100757.13;;;22.99;
46015;BME280;36844;51.898;-0.874;2022-08-25T15:46:12;100751.25;;;23.01;
46015;BME280;36844;51.898;-0.874;2022-08-25T15:49:00;100755.84;;;23.04;
46015;BME280;36844;51.898;-0.874;2022-08-25T15:51:45;100763.56;;;23.05;
46015;BME280;36844;51.898;-0.874;2022-08-25T15:54:31;100757.72;;;23.07;
46015;BME280;36844;51.898;-0.874;2022-08-25T15:57:19;100762.72;;;23.08;
46015;BME280;36844;51.898;-0.874;2022-08-25T16:00:05;100762.28;;;23.10;
46015;BME280;36844;51.898;-0.874;2022-08-25T16:02:51;100761.13;;;23.11;
46015;BME280;36844;51.898;-0.874;2022-08-25T16:05:40;100757.94;;;23.12;
46015;BME280;36844;51.898;-0.874;2022-08-25T16:08:26;100760.25;;;23.14;
46015;BME280;36844;51.898;-0.874;2022-08-25T16:11:16;100759.84;;;23.15;
46015;BME280;36844;51.898;-0.874;2022-08-25T16:14:03;100757.84;;;23.16;
46015;BME280;36844;51.898;-0.874;2022-08-25T16:16:48;100753.97;;;23.17;
46015;BME280;36844;51.898;-0.874;2022-08-25T16:19:34;100757.47;;;23.17;
46015;BME280;36844;51.898;-0.874;2022-08-25T16:22:20;100761.69;;;23.18;
46015;BME280;36844;51.898;-0.874;2022-08-25T16:25:05;100761.69;;;23.18;
46015;BME280;36844;51.898;-0.874;2022-08-25T16:27:53;100759.31;;;23.20;
46015;BME280;36844;51.898;-0.874;2022-08-25T16:30:39;100764.75;;;23.20;
46015;BME280;36844;51.898;-0.874;2022-08-25T16:33:29;100765.53;;;23.21;
46015;BME280;36844;51.898;-0.874;2022-08-25T16:36:15;100758.88;;;23.22;
46015;BME280;36844;51.898;-0.874;2022-08-25T16:39:01;100759.66;;;23.22;